createdAt,value
2023-05-19T00:02:28.778Z,100573.66
2023-05-19T00:05:03.525Z,100584.88
2023-05-19T00:07:34.958Z,100533.88
2023-05-19T00:10:06.089Z,100581.13
2023-05-19T00:12:40.813Z,100581.09
2023-05-19T00:15:13.121Z,100575.69
2023-05-19T00:17:45.098Z,100589.44
2023-05-19T00:20:17.057Z,100576.97
2023-05-19T00:22:50.719Z,100572.44
2023-05-19T00:25:21.244Z,100568.72
2023-05-19T00:27:57.748Z,100565.66
2023-05-19T00:30:28.357Z,100563.50
2023-05-19T00:32:59.303Z,100563.16
2023-05-19T00:35:29.828Z,100559.34
2023-05-19T00:38:00.256Z,100560.75
2023-05-19T00:40:33.675Z,100556.03
2023-05-19T00:43:06.825Z,100534.28
2023-05-19T00:45:37.535Z,100556.81
2023-05-19T00:48:08.320Z,100558.81
2023-05-19T00:50:39.518Z,100553.16
2023-05-19T00:53:13.584Z,100558.00
2023-05-19T00:55:47.779Z,100534.50
2023-05-19T00:58:21.069Z,100562.84
2023-05-19T01:00:51.573Z,100554.84
2023-05-19T01:03:22.187Z,100554.72
2023-05-19T01:05:54.516Z,100553.69
2023-05-19T01:08:25.576Z,100550.09
2023-05-19T01:10:56.166Z,100558.53
2023-05-19T01:13:31.289Z,100549.28
2023-05-19T01:16:07.617Z,100560.25
2023-05-19T01:18:47.051Z,100549.88
2023-05-19T01:21:59.309Z,100548.72
2023-05-19T01:24:48.022Z,100548.72
2023-05-19T01:27:44.569Z,100544.31
2023-05-19T01:30:36.566Z,100539.16
2023-05-19T01:33:13.012Z,100528.50
2023-05-19T01:35:44.767Z,100538.75
2023-05-19T01:38:21.048Z,100543.81
2023-05-19T01:40:56.092Z,100465.94
2023-05-19T01:43:28.752Z,100532.53
2023-05-19T01:46:05.173Z,100530.44
2023-05-19T01:48:39.446Z,100534.00
2023-05-19T01:51:09.839Z,100533.69
2023-05-19T01:53:40.408Z,100533.59
2023-05-19T01:56:11.521Z,100507.44
2023-05-19T01:58:48.462Z,100520.50
2023-05-19T02:01:32.673Z,100520.31
2023-05-19T02:04:15.815Z,100524.09
2023-05-19T02:06:55.653Z,100516.09
2023-05-19T02:09:29.827Z,100529.13
2023-05-19T02:12:06.250Z,100533.44
2023-05-19T02:14:42.111Z,100524.91
2023-05-19T02:17:17.738Z,100514.75
2023-05-19T02:19:48.903Z,100514.53
2023-05-19T02:22:19.510Z,100520.16
2023-05-19T02:24:52.395Z,100519.66
2023-05-19T02:27:23.077Z,100522.00
2023-05-19T02:29:53.833Z,100518.88
2023-05-19T02:32:26.162Z,100508.34
2023-05-19T02:34:58.040Z,100507.53
2023-05-19T02:37:29.259Z,100505.78
2023-05-19T02:40:00.233Z,100506.03
2023-05-19T02:42:30.628Z,100496.88
2023-05-19T02:45:02.706Z,100498.66
2023-05-19T02:47:37.051Z,100496.88
2023-05-19T02:50:09.380Z,100494.97
2023-05-19T02:52:40.092Z,100500.38
2023-05-19T02:55:11.642Z,100504.13
2023-05-19T02:57:48.184Z,100503.97
2023-05-19T03:00:19.674Z,100493.44
2023-05-19T03:02:53.850Z,100458.38
2023-05-19T03:05:29.051Z,100498.44
2023-05-19T03:07:59.684Z,100495.81
2023-05-19T03:10:33.104Z,100488.19
2023-05-19T03:13:04.498Z,100489.94
2023-05-19T03:15:35.323Z,100472.31
2023-05-19T03:18:15.469Z,100449.56
2023-05-19T03:20:46.407Z,100464.97
2023-05-19T03:23:17.322Z,100466.34
2023-05-19T03:25:50.627Z,100458.66
2023-05-19T03:28:21.393Z,100447.75
2023-05-19T03:30:52.640Z,100458.13
2023-05-19T03:33:26.060Z,100457.44
2023-05-19T03:35:56.746Z,100460.19
2023-05-19T03:38:27.689Z,100453.06
2023-05-19T03:40:58.525Z,100458.41
2023-05-19T03:43:31.445Z,100455.16
2023-05-19T03:46:03.015Z,100443.72
2023-05-19T03:48:37.702Z,100449.81
2023-05-19T03:51:09.896Z,100453.84
2023-05-19T03:53:42.858Z,100448.53
2023-05-19T03:56:14.578Z,100448.63
2023-05-19T03:58:46.014Z,100431.63
2023-05-19T04:01:19.582Z,100439.13
2023-05-19T04:03:51.847Z,100439.78
2023-05-19T04:06:22.970Z,100440.41
2023-05-19T04:08:53.525Z,100438.66
2023-05-19T04:11:24.006Z,100431.13
2023-05-19T04:13:54.511Z,100429.66
2023-05-19T04:16:27.397Z,100436.03
2023-05-19T04:18:59.779Z,100433.75
2023-05-19T04:21:30.578Z,100403.09
2023-05-19T04:24:07.184Z,100438.50
2023-05-19T04:26:41.587Z,100428.94
2023-05-19T04:29:18.808Z,100427.09
2023-05-19T04:31:49.899Z,100407.09
2023-05-19T04:34:22.796Z,100430.03
2023-05-19T04:36:54.352Z,100428.16
2023-05-19T04:39:24.942Z,100429.06
2023-05-19T04:41:56.206Z,100428.66
2023-05-19T04:44:27.181Z,100431.19
2023-05-19T04:46:58.694Z,100393.16
2023-05-19T04:49:30.928Z,100422.78
2023-05-19T04:52:02.179Z,100432.31
2023-05-19T04:54:35.799Z,100441.25
2023-05-19T04:57:06.531Z,100433.84
2023-05-19T04:59:37.391Z,100437.97
2023-05-19T05:02:08.652Z,100443.31
2023-05-19T05:04:43.510Z,100446.06
2023-05-19T05:07:14.347Z,100449.19
2023-05-19T05:09:47.811Z,100447.41
2023-05-19T05:12:24.867Z,100437.44
2023-05-19T05:14:59.147Z,100436.94
2023-05-19T05:17:30.762Z,100403.34
2023-05-19T05:20:06.486Z,100409.22
2023-05-19T05:22:39.519Z,100449.44
2023-05-19T05:25:11.883Z,100446.75
2023-05-19T05:27:43.466Z,100431.53
2023-05-19T05:30:14.893Z,100429.19
2023-05-19T05:32:46.566Z,100440.72
2023-05-19T05:35:19.089Z,100443.44
2023-05-19T05:37:49.674Z,100449.72
2023-05-19T05:40:25.460Z,100450.88
2023-05-19T05:42:58.682Z,100448.94
2023-05-19T05:45:29.543Z,100453.56
2023-05-19T05:48:00.965Z,100447.69
2023-05-19T05:50:34.048Z,100449.59
2023-05-19T05:53:09.054Z,100449.88
2023-05-19T05:55:40.293Z,100438.44
2023-05-19T05:58:12.156Z,100442.94
2023-05-19T06:00:46.501Z,100403.88
2023-05-19T06:03:17.820Z,100445.13
2023-05-19T06:05:50.256Z,100444.97
2023-05-19T06:08:20.931Z,100442.03
2023-05-19T06:10:51.552Z,100430.31
2023-05-19T06:13:24.923Z,100448.53
2023-05-19T06:15:55.943Z,100446.44
2023-05-19T06:18:26.708Z,100343.00
2023-05-19T06:20:59.094Z,100441.22
2023-05-19T06:23:30.123Z,100445.63
2023-05-19T06:26:00.903Z,100444.50
2023-05-19T06:28:37.194Z,100446.28
2023-05-19T06:31:07.804Z,100443.06
2023-05-19T06:33:41.429Z,100442.09
2023-05-19T06:36:14.669Z,100446.78
2023-05-19T06:38:45.302Z,100448.38
2023-05-19T06:41:16.174Z,100454.88
2023-05-19T06:43:46.895Z,100452.69
2023-05-19T06:46:18.658Z,100455.44
2023-05-19T06:48:52.782Z,100447.19
2023-05-19T06:51:24.998Z,100440.63
2023-05-19T06:53:59.756Z,100443.13
2023-05-19T06:56:30.329Z,100439.31
2023-05-19T06:59:06.915Z,100457.91
2023-05-19T07:01:37.675Z,100458.97
2023-05-19T07:04:08.828Z,100463.78
2023-05-19T07:06:41.294Z,100465.03
2023-05-19T07:09:11.814Z,100464.50
2023-05-19T07:11:43.103Z,100454.16
2023-05-19T07:14:16.454Z,100455.97
2023-05-19T07:16:47.378Z,100465.59
2023-05-19T07:19:20.233Z,100458.75
2023-05-19T07:21:52.557Z,100453.53
2023-05-19T07:24:23.829Z,100463.34
2023-05-19T07:26:54.552Z,100454.09
2023-05-19T07:29:25.280Z,100464.78
2023-05-19T07:32:00.186Z,100467.72
2023-05-19T07:34:31.009Z,100467.81
2023-05-19T07:37:03.256Z,100475.69
2023-05-19T07:39:34.073Z,100467.84
2023-05-19T07:42:04.694Z,100470.78
2023-05-19T07:44:38.102Z,100465.00
2023-05-19T07:47:10.931Z,100462.78
2023-05-19T07:49:44.305Z,100469.41
2023-05-19T07:52:16.653Z,100471.19
2023-05-19T07:54:47.500Z,100474.63
2023-05-19T07:57:18.104Z,100472.00
2023-05-19T07:59:48.893Z,100474.41
2023-05-19T08:02:19.554Z,100473.59
2023-05-19T08:04:50.449Z,100462.47
2023-05-19T08:07:26.207Z,100477.97
2023-05-19T08:09:57.013Z,100474.41
2023-05-19T08:12:27.723Z,100478.09
2023-05-19T08:15:00.381Z,100472.81
2023-05-19T08:17:34.631Z,100470.09
2023-05-19T08:20:08.083Z,100471.72
2023-05-19T08:22:40.610Z,100478.72
2023-05-19T08:25:14.835Z,100476.88
2023-05-19T08:27:48.165Z,100480.19
2023-05-19T08:30:21.363Z,100475.44
2023-05-19T08:32:52.181Z,100421.28
2023-05-19T08:35:23.005Z,100486.03
2023-05-19T08:37:55.267Z,100487.09
2023-05-19T08:40:32.562Z,100495.72
2023-05-19T08:43:09.096Z,100496.72
2023-05-19T08:45:40.146Z,100498.50
2023-05-19T08:48:13.566Z,100505.00
2023-05-19T08:50:50.109Z,100512.09
2023-05-19T08:53:33.839Z,100513.13
2023-05-19T08:56:12.445Z,100523.22
2023-05-19T08:58:44.720Z,100514.91
2023-05-19T09:01:18.499Z,100526.72
2023-05-19T09:03:50.881Z,100477.97
2023-05-19T09:06:22.179Z,100537.13
2023-05-19T09:08:54.371Z,100546.19
2023-05-19T09:11:25.018Z,100549.34
2023-05-19T09:13:55.608Z,100554.09
2023-05-19T09:16:27.875Z,100560.75
2023-05-19T09:19:12.060Z,100562.91
2023-05-19T09:21:43.993Z,100578.13
2023-05-19T09:24:16.896Z,100578.75
2023-05-19T09:26:49.912Z,100581.69
2023-05-19T09:29:21.215Z,100551.81
2023-05-19T09:31:52.988Z,100598.25
2023-05-19T09:34:36.012Z,100580.34
2023-05-19T09:37:07.007Z,100603.06
2023-05-19T09:39:42.123Z,100617.09
2023-05-19T09:42:14.831Z,100623.28
2023-05-19T09:44:48.412Z,100608.59
2023-05-19T09:47:22.053Z,100621.75
2023-05-19T09:49:53.147Z,100621.94
2023-05-19T09:52:24.576Z,100608.22
2023-05-19T09:54:57.757Z,100630.91
2023-05-19T09:57:36.812Z,100635.34
2023-05-19T10:00:18.246Z,100626.81
2023-05-19T10:02:51.249Z,100641.72
2023-05-19T10:05:23.106Z,100642.66
2023-05-19T10:07:55.449Z,100649.69
2023-05-19T10:10:29.823Z,100648.94
2023-05-19T10:13:01.956Z,100646.38
2023-05-19T10:15:40.737Z,100649.94
2023-05-19T10:18:17.599Z,100653.50
2023-05-19T10:20:52.360Z,100662.22
2023-05-19T10:23:23.258Z,100668.34
2023-05-19T10:26:00.980Z,100676.16
2023-05-19T10:28:38.082Z,100677.91
2023-05-19T10:31:12.826Z,100665.75
2023-05-19T10:33:59.708Z,100684.81
2023-05-19T10:36:47.165Z,100697.00
2023-05-19T10:39:22.352Z,100693.53
2023-05-19T10:42:07.475Z,100700.47
2023-05-19T10:45:03.597Z,100701.34
2023-05-19T10:47:35.864Z,100690.00
2023-05-19T10:50:10.943Z,100709.97
2023-05-19T10:52:42.191Z,100673.50
2023-05-19T10:55:16.564Z,100709.97
2023-05-19T10:57:59.146Z,100709.06
2023-05-19T11:00:34.184Z,100710.78
2023-05-19T11:03:16.708Z,100717.72
2023-05-19T11:05:55.917Z,100700.31
2023-05-19T11:08:36.084Z,100720.25
2023-05-19T11:11:16.756Z,100715.84
2023-05-19T11:13:51.415Z,100712.31
2023-05-19T11:16:38.105Z,100710.53
2023-05-19T11:19:09.781Z,100697.38
2023-05-19T11:21:55.809Z,100659.13
2023-05-19T11:24:40.760Z,100725.06
2023-05-19T11:27:28.473Z,100738.81
2023-05-19T11:30:15.298Z,100704.88
2023-05-19T11:32:51.160Z,100748.22
2023-05-19T11:35:26.047Z,100744.69
2023-05-19T11:38:00.046Z,100736.00
2023-05-19T11:40:31.600Z,100760.28
2023-05-19T11:43:05.315Z,100755.00
2023-05-19T11:45:37.970Z,100764.53
2023-05-19T11:48:11.279Z,100747.91
2023-05-19T11:50:46.501Z,100763.56
2023-05-19T11:53:18.470Z,100738.22
2023-05-19T11:55:52.669Z,100760.91
2023-05-19T11:58:29.669Z,100777.41
2023-05-19T12:01:07.621Z,100707.81
2023-05-19T12:03:41.407Z,100770.44
2023-05-19T12:06:12.356Z,100770.50
2023-05-19T12:08:43.063Z,100763.56
2023-05-19T12:11:21.222Z,100751.47
2023-05-19T12:13:55.478Z,100759.22
2023-05-19T12:16:35.082Z,100759.28
2023-05-19T12:19:12.800Z,100760.94
2023-05-19T12:21:43.889Z,100773.88
2023-05-19T12:24:14.689Z,100769.56
2023-05-19T12:26:45.279Z,100770.41
2023-05-19T12:29:17.137Z,100770.22
2023-05-19T12:31:54.985Z,100789.38
2023-05-19T12:34:26.642Z,100779.03
2023-05-19T12:36:57.423Z,100754.63
2023-05-19T12:39:41.864Z,100792.81
2023-05-19T12:42:16.502Z,100792.63
2023-05-19T12:44:52.810Z,100783.94
2023-05-19T12:47:41.981Z,100802.84
2023-05-19T12:50:14.717Z,100796.66
2023-05-19T12:52:46.611Z,100785.38
2023-05-19T12:55:21.383Z,100800.19
2023-05-19T12:57:52.633Z,100816.56
2023-05-19T13:00:26.705Z,100708.63
2023-05-19T13:03:08.593Z,100811.38
2023-05-19T13:05:45.446Z,100807.94
2023-05-19T13:08:21.001Z,100800.91
2023-05-19T13:10:53.391Z,100805.38
2023-05-19T13:13:24.187Z,100808.75
2023-05-19T13:15:54.991Z,100813.91
2023-05-19T13:18:35.801Z,100814.81
2023-05-19T13:21:10.473Z,100820.78
2023-05-19T13:23:47.066Z,100798.16
2023-05-19T13:26:19.407Z,100816.63
2023-05-19T13:28:50.686Z,100820.06
2023-05-19T13:31:25.400Z,100821.78
2023-05-19T13:33:58.848Z,100820.88
2023-05-19T13:36:30.281Z,100818.31
2023-05-19T13:39:01.717Z,100820.09
2023-05-19T13:41:33.304Z,100808.78
2023-05-19T13:44:04.881Z,100819.22
2023-05-19T13:46:44.679Z,100816.59
2023-05-19T13:49:17.622Z,100796.63
2023-05-19T13:51:51.356Z,100810.59
2023-05-19T13:54:27.260Z,100800.22
2023-05-19T13:56:58.336Z,100805.38
2023-05-19T13:59:32.445Z,100766.16
2023-05-19T14:02:06.322Z,100804.41
2023-05-19T14:04:43.428Z,100800.88
2023-05-19T14:07:14.881Z,100792.22
2023-05-19T14:09:45.767Z,100792.97
2023-05-19T14:12:16.704Z,100787.72
2023-05-19T14:14:49.267Z,100768.53
2023-05-19T14:17:21.559Z,100784.94
2023-05-19T14:20:00.211Z,100797.00
2023-05-19T14:22:31.400Z,100800.38
2023-05-19T14:25:03.291Z,100798.63
2023-05-19T14:27:36.290Z,100774.13
2023-05-19T14:30:07.871Z,100798.38
2023-05-19T14:32:38.985Z,100792.31
2023-05-19T14:35:16.742Z,100813.91
2023-05-19T14:37:47.459Z,100794.63
2023-05-19T14:40:25.592Z,100814.69
2023-05-19T14:44:12.376Z,100818.97
2023-05-19T14:46:43.577Z,100819.91
2023-05-19T14:49:14.638Z,100812.03
2023-05-19T14:51:47.859Z,100805.09
2023-05-19T14:57:34.763Z,100801.44
2023-05-19T15:00:06.047Z,100794.53
2023-05-19T15:02:43.197Z,100799.81
2023-05-19T15:05:18.628Z,100777.22
2023-05-19T15:07:58.040Z,100792.03
2023-05-19T15:10:29.284Z,100791.19
2023-05-19T15:13:01.312Z,100788.56
2023-05-19T15:15:32.555Z,100770.41
2023-05-19T15:18:03.642Z,100773.91
2023-05-19T15:20:41.910Z,100769.66
2023-05-19T15:23:45.907Z,100774.03
2023-05-19T15:26:19.223Z,100747.88
2023-05-19T15:28:50.211Z,100731.22
2023-05-19T15:31:21.497Z,100750.41
2023-05-19T15:33:56.309Z,100733.94
2023-05-19T15:37:13.184Z,100740.09
2023-05-19T15:40:25.443Z,100727.19
2023-05-19T15:42:59.687Z,100732.44
2023-05-19T15:45:32.119Z,100717.66
2023-05-19T15:48:05.229Z,100742.56
2023-05-19T15:50:36.665Z,100729.47
2023-05-19T15:53:09.183Z,100742.53
2023-05-19T15:55:42.021Z,100725.34
2023-05-19T15:58:13.235Z,100732.22
2023-05-19T16:00:44.075Z,100729.63
2023-05-19T16:03:15.229Z,100727.03
2023-05-19T16:05:55.093Z,100729.59
2023-05-19T16:08:25.323Z,100732.91
2023-05-19T16:10:58.935Z,100739.81
2023-05-19T16:13:34.536Z,100745.94
2023-05-19T16:16:05.841Z,100740.88
2023-05-19T16:18:39.578Z,100737.38
2023-05-19T16:21:11.415Z,100746.09
2023-05-19T16:23:42.824Z,100741.75
2023-05-19T16:26:18.293Z,100747.81
2023-05-19T16:28:49.498Z,100751.28
2023-05-19T16:31:20.823Z,100756.44
2023-05-19T16:33:51.903Z,100751.34
2023-05-19T16:36:23.728Z,100746.06
2023-05-19T16:38:55.172Z,100758.19
2023-05-19T16:41:29.209Z,100759.91
2023-05-19T16:44:32.998Z,100765.97
2023-05-19T16:47:31.270Z,100751.16
2023-05-19T16:50:02.802Z,100765.84
2023-05-19T16:52:36.270Z,100770.13
2023-05-19T16:55:08.144Z,100756.25
2023-05-19T16:57:40.879Z,100761.44
2023-05-19T17:00:13.472Z,100744.09
2023-05-19T17:02:44.669Z,100758.84
2023-05-19T17:05:16.442Z,100769.31
2023-05-19T17:07:47.710Z,100759.94
2023-05-19T17:10:19.307Z,100752.06
2023-05-19T17:12:52.765Z,100768.41
2023-05-19T17:15:24.088Z,100747.63
2023-05-19T17:17:56.430Z,100738.16
2023-05-19T17:20:35.184Z,100724.13
2023-05-19T17:23:09.126Z,100743.25
2023-05-19T17:25:43.305Z,100739.81
2023-05-19T17:28:18.642Z,100720.53
2023-05-19T17:30:52.841Z,100734.47
2023-05-19T17:33:25.001Z,100738.09
2023-05-19T17:35:56.177Z,100743.38
2023-05-19T17:38:27.405Z,100731.22
2023-05-19T17:41:01.741Z,100739.00
2023-05-19T17:43:34.406Z,100754.41
2023-05-19T17:46:09.294Z,100718.78
2023-05-19T17:48:40.773Z,100741.59
2023-05-19T17:51:16.849Z,100736.31
2023-05-19T17:53:49.102Z,100709.22
2023-05-19T17:56:27.029Z,100672.41
2023-05-19T17:59:05.551Z,100737.91
2023-05-19T18:01:39.008Z,100744.09
2023-05-19T18:04:15.331Z,100742.41
2023-05-19T18:06:56.878Z,100723.28
2023-05-19T18:09:29.897Z,100719.75
2023-05-19T18:12:02.903Z,100745.94
2023-05-19T18:14:41.328Z,100740.75
2023-05-19T18:17:18.599Z,100735.59
2023-05-19T18:19:52.462Z,100716.44
2023-05-19T18:22:23.824Z,100744.09
2023-05-19T18:24:55.073Z,100736.41
2023-05-19T18:27:29.254Z,100740.81
2023-05-19T18:30:02.355Z,100744.38
2023-05-19T18:32:33.691Z,100739.19
2023-05-19T18:35:09.028Z,100738.19
2023-05-19T18:37:44.855Z,100739.81
2023-05-19T18:40:16.248Z,100732.78
2023-05-19T18:42:47.889Z,100730.94
2023-05-19T18:45:21.012Z,100731.78
2023-05-19T18:47:54.324Z,100739.75
2023-05-19T18:50:25.396Z,100751.84
2023-05-19T18:52:56.400Z,100747.53
2023-05-19T18:55:29.333Z,100745.75
2023-05-19T18:58:03.227Z,100742.25
2023-05-19T19:00:36.234Z,100754.44
2023-05-19T19:03:08.417Z,100752.59
2023-05-19T19:05:39.503Z,100770.03
2023-05-19T19:08:11.067Z,100766.50
2023-05-19T19:10:42.392Z,100775.16
2023-05-19T19:13:13.077Z,100749.16
2023-05-19T19:15:45.738Z,100746.44
2023-05-19T19:18:16.916Z,100752.75
2023-05-19T19:20:48.108Z,100750.16
2023-05-19T19:23:18.933Z,100743.16
2023-05-19T19:25:49.997Z,100741.38
2023-05-19T19:28:20.832Z,100727.50
2023-05-19T19:30:56.182Z,100735.19
2023-05-19T19:33:27.401Z,100738.78
2023-05-19T19:36:00.854Z,100743.28
2023-05-19T19:38:31.825Z,100748.53
2023-05-19T19:41:02.828Z,100751.97
2023-05-19T19:43:33.845Z,100735.59
2023-05-19T19:46:08.091Z,100739.13
2023-05-19T19:48:38.917Z,100748.75
2023-05-19T19:51:09.874Z,100747.06
2023-05-19T19:53:40.729Z,100752.25
2023-05-19T19:56:11.582Z,100752.25
2023-05-19T19:58:42.297Z,100723.53
2023-05-19T20:01:15.348Z,100740.88
2023-05-19T20:03:46.144Z,100762.44
2023-05-19T20:06:19.350Z,100763.34
2023-05-19T20:08:52.996Z,100771.22
2023-05-19T20:11:25.494Z,100740.88
2023-05-19T20:13:56.423Z,100748.78
2023-05-19T20:16:29.208Z,100759.44
2023-05-19T20:19:00.398Z,100769.00
2023-05-19T20:22:03.201Z,100730.75
2023-05-19T20:27:57.303Z,100772.53
2023-05-19T20:30:28.245Z,100763.91
2023-05-19T20:33:00.660Z,100759.66
2023-05-19T20:35:31.500Z,100748.34
2023-05-19T20:38:04.069Z,100751.81
2023-05-19T20:41:36.467Z,100740.63
2023-05-19T20:44:07.383Z,100699.69
2023-05-19T20:46:38.055Z,100744.81
2023-05-19T20:49:10.376Z,100743.97
2023-05-19T20:52:26.683Z,100659.69
2023-05-19T20:55:50.497Z,100749.34
2023-05-19T21:03:05.701Z,100758.97
2023-05-19T21:05:45.470Z,100757.22
2023-05-19T21:08:16.137Z,100733.72
2023-05-19T21:10:46.841Z,100753.78
2023-05-19T21:13:46.875Z,100673.78
2023-05-19T21:16:17.660Z,100703.41
2023-05-19T21:18:48.405Z,100738.13
2023-05-19T21:21:25.266Z,100724.31
2023-05-19T21:24:48.761Z,100728.81
2023-05-19T21:27:50.939Z,100744.41
2023-05-19T21:30:21.872Z,100745.50
2023-05-19T21:33:03.221Z,100742.06
2023-05-19T21:35:33.896Z,100763.09
2023-05-19T21:38:15.658Z,100753.84
2023-05-19T21:41:02.462Z,100762.66
2023-05-19T21:43:33.190Z,100753.09
2023-05-19T21:46:04.191Z,100758.44
2023-05-19T21:48:37.886Z,100760.13
2023-05-19T21:51:08.817Z,100766.91
2023-05-19T21:53:41.031Z,100762.50
2023-05-19T21:56:12.224Z,100763.38
2023-05-19T21:58:48.568Z,100766.94
2023-05-19T22:01:19.295Z,100758.59
2023-05-19T22:04:02.316Z,100769.25
2023-05-19T22:06:37.451Z,100770.25
2023-05-19T22:09:10.051Z,100755.50
2023-05-19T22:11:40.566Z,100757.19
2023-05-19T22:14:11.766Z,100757.91
2023-05-19T22:16:42.963Z,100756.16
2023-05-19T22:19:27.619Z,100744.81
2023-05-19T22:22:13.089Z,100768.19
2023-05-19T22:24:49.964Z,100745.72
2023-05-19T22:28:01.037Z,100762.09
2023-05-19T22:30:32.171Z,100753.31
2023-05-19T22:33:03.090Z,100753.47
2023-05-19T22:35:36.656Z,100757.88
2023-05-19T22:38:08.815Z,100753.59
2023-05-19T22:40:42.564Z,100762.38
2023-05-19T22:43:13.359Z,100754.66
2023-05-19T22:45:44.103Z,100744.22
2023-05-19T22:48:17.322Z,100741.72
2023-05-19T22:50:48.099Z,100752.31
2023-05-19T22:53:22.769Z,100754.06
2023-05-19T22:55:55.047Z,100743.59
2023-05-19T22:58:25.580Z,100754.94
2023-05-19T23:00:59.304Z,100748.88
2023-05-19T23:03:30.013Z,100749.75
2023-05-19T23:06:00.657Z,100759.28
2023-05-19T23:08:34.062Z,100757.50
2023-05-19T23:11:08.252Z,100754.00
2023-05-19T23:13:38.847Z,100769.59
2023-05-19T23:16:12.183Z,100776.56
2023-05-19T23:18:42.952Z,100770.59
2023-05-19T23:21:16.237Z,100772.44
2023-05-19T23:23:46.923Z,100748.13
2023-05-19T23:26:22.312Z,100760.34
2023-05-19T23:28:56.083Z,100760.34
2023-05-19T23:31:26.793Z,100767.34
2023-05-19T23:34:28.101Z,100761.22
2023-05-19T23:40:46.053Z,100762.13
2023-05-19T23:43:18.545Z,100758.59
2023-05-19T23:45:51.804Z,100765.56
2023-05-19T23:48:22.322Z,100771.66
2023-05-19T23:50:52.972Z,100772.47
2023-05-19T23:53:23.519Z,100731.72
2023-05-19T23:55:55.316Z,100773.38
2023-05-19T23:58:28.669Z,100783.81
